Aviation Digital Data Service (ADDS)

Output produced by METARs form (0932 UTC 20 September 2019)
found at http://aviationweather.gov/metar/data/
 
KHDN 200520Z 2006/2106 05004KT P6SM SKC 
     FM201600 20015G25KT P6SM SCT250 
     FM201800 23020G30KT P6SM SCT090 BKN100 
     FM202100 24025G35KT P6SM SCT100 
     FM210200 26009KT P6SM SCT250